sensor_id;sensor_type;location;lat;lon;timestamp;temperature;humidity
19039;DHT22;9652;49.014;12.052;2022-08-06T00:02:03;24.50;52.00
19039;DHT22;9652;49.014;12.052;2022-08-06T00:04:30;24.60;52.20
19039;DHT22;9652;49.014;12.052;2022-08-06T00:06:57;24.60;52.80
19039;DHT22;9652;49.014;12.052;2022-08-06T00:09:24;24.50;53.20
19039;DHT22;9652;49.014;12.052;2022-08-06T00:11:57;24.40;53.90
19039;DHT22;9652;49.014;12.052;2022-08-06T00:14:26;24.10;55.10
19039;DHT22;9652;49.014;12.052;2022-08-06T00:16:53;24.00;54.90
19039;DHT22;9652;49.014;12.052;2022-08-06T00:19:20;23.80;55.30
19039;DHT22;9652;49.014;12.052;2022-08-06T00:21:47;23.70;55.80
19039;DHT22;9652;49.014;12.052;2022-08-06T00:24:14;23.60;56.20
19039;DHT22;9652;49.014;12.052;2022-08-06T00:26:42;23.40;56.50
19039;DHT22;9652;49.014;12.052;2022-08-06T00:29:10;23.40;56.80
19039;DHT22;9652;49.014;12.052;2022-08-06T00:31:37;23.30;57.10
19039;DHT22;9652;49.014;12.052;2022-08-06T00:34:04;23.30;57.00
19039;DHT22;9652;49.014;12.052;2022-08-06T00:36:33;23.10;57.10
19039;DHT22;9652;49.014;12.052;2022-08-06T00:39:02;23.20;57.00
19039;DHT22;9652;49.014;12.052;2022-08-06T00:41:32;23.10;57.00
19039;DHT22;9652;49.014;12.052;2022-08-06T00:44:00;23.00;56.70
19039;DHT22;9652;49.014;12.052;2022-08-06T00:46:29;23.00;56.80
19039;DHT22;9652;49.014;12.052;2022-08-06T00:48:56;22.90;56.70
19039;DHT22;9652;49.014;12.052;2022-08-06T00:51:24;22.80;56.80
19039;DHT22;9652;49.014;12.052;2022-08-06T00:53:51;22.70;56.60
19039;DHT22;9652;49.014;12.052;2022-08-06T00:56:20;22.60;56.60
19039;DHT22;9652;49.014;12.052;2022-08-06T00:58:47;22.60;56.50
19039;DHT22;9652;49.014;12.052;2022-08-06T01:01:14;22.50;56.70
19039;DHT22;9652;49.014;12.052;2022-08-06T01:03:42;22.50;56.80
19039;DHT22;9652;49.014;12.052;2022-08-06T01:06:09;22.40;56.80
19039;DHT22;9652;49.014;12.052;2022-08-06T01:08:36;22.40;56.80
19039;DHT22;9652;49.014;12.052;2022-08-06T01:11:04;22.30;56.70
19039;DHT22;9652;49.014;12.052;2022-08-06T01:13:35;22.30;56.90
19039;DHT22;9652;49.014;12.052;2022-08-06T01:16:09;22.30;57.10
19039;DHT22;9652;49.014;12.052;2022-08-06T01:18:47;22.30;57.40
19039;DHT22;9652;49.014;12.052;2022-08-06T01:21:45;22.30;57.20
19039;DHT22;9652;49.014;12.052;2022-08-06T01:24:50;22.30;57.70
19039;DHT22;9652;49.014;12.052;2022-08-06T01:27:33;22.30;57.60
19039;DHT22;9652;49.014;12.052;2022-08-06T01:30:07;22.30;57.40
19039;DHT22;9652;49.014;12.052;2022-08-06T01:32:40;22.30;56.90
19039;DHT22;9652;49.014;12.052;2022-08-06T01:35:16;22.20;57.00
19039;DHT22;9652;49.014;12.052;2022-08-06T01:37:52;22.20;56.80
19039;DHT22;9652;49.014;12.052;2022-08-06T01:40:27;22.10;56.70
19039;DHT22;9652;49.014;12.052;2022-08-06T01:43:00;22.10;57.00
19039;DHT22;9652;49.014;12.052;2022-08-06T01:45:33;22.00;58.60
19039;DHT22;9652;49.014;12.052;2022-08-06T01:48:04;21.90;58.70
19039;DHT22;9652;49.014;12.052;2022-08-06T01:50:46;21.80;59.30
19039;DHT22;9652;49.014;12.052;2022-08-06T01:53:17;21.60;59.60
19039;DHT22;9652;49.014;12.052;2022-08-06T01:55:51;21.50;60.00
19039;DHT22;9652;49.014;12.052;2022-08-06T01:58:27;21.30;60.80
19039;DHT22;9652;49.014;12.052;2022-08-06T02:00:56;21.20;61.10
19039;DHT22;9652;49.014;12.052;2022-08-06T02:03:28;21.00;61.10
19039;DHT22;9652;49.014;12.052;2022-08-06T02:05:58;20.90;61.50
19039;DHT22;9652;49.014;12.052;2022-08-06T02:08:30;20.80;61.70
19039;DHT22;9652;49.014;12.052;2022-08-06T02:11:00;20.60;62.00
19039;DHT22;9652;49.014;12.052;2022-08-06T02:13:33;20.60;62.40
19039;DHT22;9652;49.014;12.052;2022-08-06T02:16:03;20.50;63.10
19039;DHT22;9652;49.014;12.052;2022-08-06T02:18:37;20.40;63.10
19039;DHT22;9652;49.014;12.052;2022-08-06T02:21:10;20.40;63.50
19039;DHT22;9652;49.014;12.052;2022-08-06T02:23:41;20.40;63.20
19039;DHT22;9652;49.014;12.052;2022-08-06T02:26:10;20.30;63.10
19039;DHT22;9652;49.014;12.052;2022-08-06T02:28:41;20.30;63.00
19039;DHT22;9652;49.014;12.052;2022-08-06T02:31:10;20.30;63.10
19039;DHT22;9652;49.014;12.052;2022-08-06T02:33:37;20.30;63.10
19039;DHT22;9652;49.014;12.052;2022-08-06T02:36:10;20.30;63.00
19039;DHT22;9652;49.014;12.052;2022-08-06T02:38:48;20.30;62.90
19039;DHT22;9652;49.014;12.052;2022-08-06T02:41:21;20.30;62.90
19039;DHT22;9652;49.014;12.052;2022-08-06T02:44:02;20.30;62.60
19039;DHT22;9652;49.014;12.052;2022-08-06T02:46:38;20.30;62.40
19039;DHT22;9652;49.014;12.052;2022-08-06T02:49:15;20.40;62.00
19039;DHT22;9652;49.014;12.052;2022-08-06T02:51:50;20.30;61.90
19039;DHT22;9652;49.014;12.052;2022-08-06T02:54:21;20.30;61.70
19039;DHT22;9652;49.014;12.052;2022-08-06T02:56:52;20.40;61.40
19039;DHT22;9652;49.014;12.052;2022-08-06T02:59:29;20.40;61.20
19039;DHT22;9652;49.014;12.052;2022-08-06T03:02:01;20.40;61.10
19039;DHT22;9652;49.014;12.052;2022-08-06T03:04:30;20.40;60.90
19039;DHT22;9652;49.014;12.052;2022-08-06T03:07:03;20.40;60.60
19039;DHT22;9652;49.014;12.052;2022-08-06T03:09:35;20.40;60.40
19039;DHT22;9652;49.014;12.052;2022-08-06T03:12:04;20.40;60.20
19039;DHT22;9652;49.014;12.052;2022-08-06T03:14:35;20.40;60.00
19039;DHT22;9652;49.014;12.052;2022-08-06T03:17:06;20.50;59.90
19039;DHT22;9652;49.014;12.052;2022-08-06T03:19:35;20.50;59.60
19039;DHT22;9652;49.014;12.052;2022-08-06T03:22:05;20.50;59.50
19039;DHT22;9652;49.014;12.052;2022-08-06T03:24:35;20.50;59.20
19039;DHT22;9652;49.014;12.052;2022-08-06T03:27:04;20.50;59.00
19039;DHT22;9652;49.014;12.052;2022-08-06T03:29:35;20.50;58.90
19039;DHT22;9652;49.014;12.052;2022-08-06T03:32:05;20.50;58.90
19039;DHT22;9652;49.014;12.052;2022-08-06T03:34:34;20.60;58.80
19039;DHT22;9652;49.014;12.052;2022-08-06T03:37:03;20.60;58.70
19039;DHT22;9652;49.014;12.052;2022-08-06T03:39:34;20.60;58.80
19039;DHT22;9652;49.014;12.052;2022-08-06T03:42:04;20.60;58.80
19039;DHT22;9652;49.014;12.052;2022-08-06T03:44:33;20.70;58.60
19039;DHT22;9652;49.014;12.052;2022-08-06T03:47:05;20.70;58.30
19039;DHT22;9652;49.014;12.052;2022-08-06T03:49:38;20.70;58.20
19039;DHT22;9652;49.014;12.052;2022-08-06T03:52:12;20.70;58.10
19039;DHT22;9652;49.014;12.052;2022-08-06T03:54:48;20.70;58.10
19039;DHT22;9652;49.014;12.052;2022-08-06T03:57:19;20.70;58.10
19039;DHT22;9652;49.014;12.052;2022-08-06T03:59:53;20.70;58.10
19039;DHT22;9652;49.014;12.052;2022-08-06T04:02:31;20.70;58.10
19039;DHT22;9652;49.014;12.052;2022-08-06T04:05:00;20.70;58.10
19039;DHT22;9652;49.014;12.052;2022-08-06T04:07:30;20.70;58.10
19039;DHT22;9652;49.014;12.052;2022-08-06T04:09:59;20.70;58.20
19039;DHT22;9652;49.014;12.052;2022-08-06T04:12:28;20.70;58.20
19039;DHT22;9652;49.014;12.052;2022-08-06T04:14:58;20.70;58.10
19039;DHT22;9652;49.014;12.052;2022-08-06T04:17:26;20.70;58.10
19039;DHT22;9652;49.014;12.052;2022-08-06T04:19:55;20.70;58.00
19039;DHT22;9652;49.014;12.052;2022-08-06T04:22:22;20.70;58.00
19039;DHT22;9652;49.014;12.052;2022-08-06T04:24:50;20.70;57.90
19039;DHT22;9652;49.014;12.052;2022-08-06T04:27:19;20.70;57.90
19039;DHT22;9652;49.014;12.052;2022-08-06T04:29:48;20.60;58.10
19039;DHT22;9652;49.014;12.052;2022-08-06T04:32:18;20.60;58.00
19039;DHT22;9652;49.014;12.052;2022-08-06T04:34:50;20.60;58.60
19039;DHT22;9652;49.014;12.052;2022-08-06T04:37:19;20.60;59.50
19039;DHT22;9652;49.014;12.052;2022-08-06T04:39:46;20.50;60.40
19039;DHT22;9652;49.014;12.052;2022-08-06T04:42:14;20.30;61.10
19039;DHT22;9652;49.014;12.052;2022-08-06T04:44:42;20.10;61.90
19039;DHT22;9652;49.014;12.052;2022-08-06T04:47:10;20.00;62.80
19039;DHT22;9652;49.014;12.052;2022-08-06T04:49:39;19.80;63.40
19039;DHT22;9652;49.014;12.052;2022-08-06T04:52:06;19.70;64.20
19039;DHT22;9652;49.014;12.052;2022-08-06T04:54:33;19.60;64.60
19039;DHT22;9652;49.014;12.052;2022-08-06T04:57:00;19.50;65.20
19039;DHT22;9652;49.014;12.052;2022-08-06T04:59:27;19.40;65.80
19039;DHT22;9652;49.014;12.052;2022-08-06T05:01:54;19.30;66.30
19039;DHT22;9652;49.014;12.052;2022-08-06T05:04:21;19.20;66.40
19039;DHT22;9652;49.014;12.052;2022-08-06T05:06:59;19.20;66.90
19039;DHT22;9652;49.014;12.052;2022-08-06T05:09:30;19.10;67.50
19039;DHT22;9652;49.014;12.052;2022-08-06T05:12:01;19.00;67.50
19039;DHT22;9652;49.014;12.052;2022-08-06T05:14:45;19.00;67.80
19039;DHT22;9652;49.014;12.052;2022-08-06T05:17:17;19.00;68.30
19039;DHT22;9652;49.014;12.052;2022-08-06T05:19:50;19.00;68.70
19039;DHT22;9652;49.014;12.052;2022-08-06T05:22:23;19.00;69.00
19039;DHT22;9652;49.014;12.052;2022-08-06T05:24:53;19.00;69.40
19039;DHT22;9652;49.014;12.052;2022-08-06T05:27:21;18.90;69.50
19039;DHT22;9652;49.014;12.052;2022-08-06T05:29:48;19.00;69.70
19039;DHT22;9652;49.014;12.052;2022-08-06T05:32:16;19.00;70.10
19039;DHT22;9652;49.014;12.052;2022-08-06T05:34:45;19.00;70.40
19039;DHT22;9652;49.014;12.052;2022-08-06T05:37:13;19.00;70.50
19039;DHT22;9652;49.014;12.052;2022-08-06T05:39:41;19.10;70.70
19039;DHT22;9652;49.014;12.052;2022-08-06T05:42:08;19.10;70.70
19039;DHT22;9652;49.014;12.052;2022-08-06T05:44:35;19.10;71.60
19039;DHT22;9652;49.014;12.052;2022-08-06T05:47:06;19.10;70.90
19039;DHT22;9652;49.014;12.052;2022-08-06T05:49:42;19.10;71.10
19039;DHT22;9652;49.014;12.052;2022-08-06T05:52:18;19.10;71.30
19039;DHT22;9652;49.014;12.052;2022-08-06T05:54:53;19.20;71.60
19039;DHT22;9652;49.014;12.052;2022-08-06T05:57:28;19.20;71.80
19039;DHT22;9652;49.014;12.052;2022-08-06T06:00:06;19.20;72.20
19039;DHT22;9652;49.014;12.052;2022-08-06T06:02:38;19.30;72.90
19039;DHT22;9652;49.014;12.052;2022-08-06T06:05:08;19.30;72.60
19039;DHT22;9652;49.014;12.052;2022-08-06T06:07:37;19.40;72.20
19039;DHT22;9652;49.014;12.052;2022-08-06T06:10:07;19.40;72.00
19039;DHT22;9652;49.014;12.052;2022-08-06T06:12:36;19.50;72.10
19039;DHT22;9652;49.014;12.052;2022-08-06T06:15:05;19.50;72.10
19039;DHT22;9652;49.014;12.052;2022-08-06T06:17:55;19.50;72.00
19039;DHT22;9652;49.014;12.052;2022-08-06T06:20:39;19.50;72.50
19039;DHT22;9652;49.014;12.052;2022-08-06T06:23:17;19.50;72.50
19039;DHT22;9652;49.014;12.052;2022-08-06T06:25:59;19.50;72.70
19039;DHT22;9652;49.014;12.052;2022-08-06T06:28:34;19.60;73.60
19039;DHT22;9652;49.014;12.052;2022-08-06T06:31:07;19.60;73.70
19039;DHT22;9652;49.014;12.052;2022-08-06T06:33:46;19.70;73.60
19039;DHT22;9652;49.014;12.052;2022-08-06T06:36:23;19.70;73.70
19039;DHT22;9652;49.014;12.052;2022-08-06T06:39:03;19.70;74.30
19039;DHT22;9652;49.014;12.052;2022-08-06T06:41:36;19.70;73.50
19039;DHT22;9652;49.014;12.052;2022-08-06T06:44:15;19.80;73.80
19039;DHT22;9652;49.014;12.052;2022-08-06T06:46:51;19.90;74.80
19039;DHT22;9652;49.014;12.052;2022-08-06T06:49:36;20.00;75.40
19039;DHT22;9652;49.014;12.052;2022-08-06T06:52:10;20.10;75.50
19039;DHT22;9652;49.014;12.052;2022-08-06T06:54:44;20.20;75.70
19039;DHT22;9652;49.014;12.052;2022-08-06T06:57:20;20.40;76.00
19039;DHT22;9652;49.014;12.052;2022-08-06T06:59:57;20.50;76.00
19039;DHT22;9652;49.014;12.052;2022-08-06T07:02:31;20.60;76.20
19039;DHT22;9652;49.014;12.052;2022-08-06T07:05:01;20.80;77.00
19039;DHT22;9652;49.014;12.052;2022-08-06T07:07:31;20.90;75.90
19039;DHT22;9652;49.014;12.052;2022-08-06T07:10:00;21.00;76.10
19039;DHT22;9652;49.014;12.052;2022-08-06T07:12:31;21.10;75.50
19039;DHT22;9652;49.014;12.052;2022-08-06T07:15:01;21.20;75.70
19039;DHT22;9652;49.014;12.052;2022-08-06T07:17:32;21.30;75.50
19039;DHT22;9652;49.014;12.052;2022-08-06T07:20:06;21.40;75.50
19039;DHT22;9652;49.014;12.052;2022-08-06T07:22:39;21.50;75.50
19039;DHT22;9652;49.014;12.052;2022-08-06T07:25:10;21.60;75.40
19039;DHT22;9652;49.014;12.052;2022-08-06T07:27:43;21.70;74.70
19039;DHT22;9652;49.014;12.052;2022-08-06T07:30:14;21.70;73.80
19039;DHT22;9652;49.014;12.052;2022-08-06T07:32:44;21.70;73.70
19039;DHT22;9652;49.014;12.052;2022-08-06T07:35:13;21.70;73.80
19039;DHT22;9652;49.014;12.052;2022-08-06T07:37:48;21.70;74.00
19039;DHT22;9652;49.014;12.052;2022-08-06T07:40:23;21.80;74.60
19039;DHT22;9652;49.014;12.052;2022-08-06T07:43:00;21.80;74.40
19039;DHT22;9652;49.014;12.052;2022-08-06T07:45:32;21.80;73.60
19039;DHT22;9652;49.014;12.052;2022-08-06T07:48:04;21.90;72.90
19039;DHT22;9652;49.014;12.052;2022-08-06T07:50:35;21.80;72.60
19039;DHT22;9652;49.014;12.052;2022-08-06T07:53:03;21.80;72.70
19039;DHT22;9652;49.014;12.052;2022-08-06T07:55:31;21.80;72.70
19039;DHT22;9652;49.014;12.052;2022-08-06T07:58:01;21.70;72.70
19039;DHT22;9652;49.014;12.052;2022-08-06T08:00:29;21.60;72.70
19039;DHT22;9652;49.014;12.052;2022-08-06T08:02:57;21.70;72.80
19039;DHT22;9652;49.014;12.052;2022-08-06T08:05:43;21.70;73.20
19039;DHT22;9652;49.014;12.052;2022-08-06T08:08:29;21.70;73.00
19039;DHT22;9652;49.014;12.052;2022-08-06T08:10:57;21.70;72.90
19039;DHT22;9652;49.014;12.052;2022-08-06T08:13:26;21.70;72.80
19039;DHT22;9652;49.014;12.052;2022-08-06T08:15:55;21.70;72.50
19039;DHT22;9652;49.014;12.052;2022-08-06T08:18:28;21.80;73.10
19039;DHT22;9652;49.014;12.052;2022-08-06T08:20:56;21.70;72.90
19039;DHT22;9652;49.014;12.052;2022-08-06T08:23:26;21.80;73.00
19039;DHT22;9652;49.014;12.052;2022-08-06T08:25:59;21.80;71.90
19039;DHT22;9652;49.014;12.052;2022-08-06T08:28:30;21.80;71.70
19039;DHT22;9652;49.014;12.052;2022-08-06T08:30:57;21.80;71.60
19039;DHT22;9652;49.014;12.052;2022-08-06T08:33:28;21.80;71.70
19039;DHT22;9652;49.014;12.052;2022-08-06T08:35:55;21.90;71.60
19039;DHT22;9652;49.014;12.052;2022-08-06T08:38:22;22.00;71.80
19039;DHT22;9652;49.014;12.052;2022-08-06T08:40:51;22.10;71.60
19039;DHT22;9652;49.014;12.052;2022-08-06T08:43:25;22.10;71.00
19039;DHT22;9652;49.014;12.052;2022-08-06T08:46:01;22.10;69.50
19039;DHT22;9652;49.014;12.052;2022-08-06T08:48:31;22.20;69.30
19039;DHT22;9652;49.014;12.052;2022-08-06T08:50:59;22.20;68.30
19039;DHT22;9652;49.014;12.052;2022-08-06T08:53:34;22.00;68.10
19039;DHT22;9652;49.014;12.052;2022-08-06T08:56:05;22.20;69.00
19039;DHT22;9652;49.014;12.052;2022-08-06T08:58:34;22.20;67.10
19039;DHT22;9652;49.014;12.052;2022-08-06T09:01:08;22.30;67.30
19039;DHT22;9652;49.014;12.052;2022-08-06T09:03:37;22.20;66.50
19039;DHT22;9652;49.014;12.052;2022-08-06T09:06:06;22.20;66.00
19039;DHT22;9652;49.014;12.052;2022-08-06T09:08:34;22.20;64.60
19039;DHT22;9652;49.014;12.052;2022-08-06T09:11:04;22.20;65.00
19039;DHT22;9652;49.014;12.052;2022-08-06T09:13:32;22.10;65.30
19039;DHT22;9652;49.014;12.052;2022-08-06T09:16:00;22.10;65.40
19039;DHT22;9652;49.014;12.052;2022-08-06T09:18:28;22.10;64.70
19039;DHT22;9652;49.014;12.052;2022-08-06T09:20:55;22.20;63.90
19039;DHT22;9652;49.014;12.052;2022-08-06T09:23:25;22.10;63.80
19039;DHT22;9652;49.014;12.052;2022-08-06T09:25:53;22.10;63.60
19039;DHT22;9652;49.014;12.052;2022-08-06T09:28:30;22.20;63.30
19039;DHT22;9652;49.014;12.052;2022-08-06T09:31:04;22.20;62.40
19039;DHT22;9652;49.014;12.052;2022-08-06T09:33:36;22.20;62.20
19039;DHT22;9652;49.014;12.052;2022-08-06T09:36:06;22.20;61.60
19039;DHT22;9652;49.014;12.052;2022-08-06T09:38:45;22.30;60.90
19039;DHT22;9652;49.014;12.052;2022-08-06T09:41:14;22.30;60.00
19039;DHT22;9652;49.014;12.052;2022-08-06T09:43:43;22.40;60.50
19039;DHT22;9652;49.014;12.052;2022-08-06T09:46:12;22.50;59.60
19039;DHT22;9652;49.014;12.052;2022-08-06T09:48:55;22.50;60.00
19039;DHT22;9652;49.014;12.052;2022-08-06T09:51:25;22.70;59.70
19039;DHT22;9652;49.014;12.052;2022-08-06T09:53:56;22.70;59.10
19039;DHT22;9652;49.014;12.052;2022-08-06T09:56:24;22.80;58.50
19039;DHT22;9652;49.014;12.052;2022-08-06T09:58:57;22.90;58.40
19039;DHT22;9652;49.014;12.052;2022-08-06T10:01:25;22.90;58.20
19039;DHT22;9652;49.014;12.052;2022-08-06T10:03:57;23.10;58.80
19039;DHT22;9652;49.014;12.052;2022-08-06T10:06:24;23.20;59.00
19039;DHT22;9652;49.014;12.052;2022-08-06T10:09:06;23.40;59.20
19039;DHT22;9652;49.014;12.052;2022-08-06T10:11:40;23.60;58.00
19039;DHT22;9652;49.014;12.052;2022-08-06T10:14:21;23.80;57.90
19039;DHT22;9652;49.014;12.052;2022-08-06T10:17:06;24.10;57.50
19039;DHT22;9652;49.014;12.052;2022-08-06T10:19:38;24.30;56.60
19039;DHT22;9652;49.014;12.052;2022-08-06T10:22:08;24.50;56.10
19039;DHT22;9652;49.014;12.052;2022-08-06T10:24:37;24.70;56.00
19039;DHT22;9652;49.014;12.052;2022-08-06T10:27:09;24.70;55.70
19039;DHT22;9652;49.014;12.052;2022-08-06T10:29:40;24.80;55.30
19039;DHT22;9652;49.014;12.052;2022-08-06T10:32:13;24.90;54.60
19039;DHT22;9652;49.014;12.052;2022-08-06T10:34:48;25.00;54.40
19039;DHT22;9652;49.014;12.052;2022-08-06T10:37:18;25.10;53.70
19039;DHT22;9652;49.014;12.052;2022-08-06T10:39:49;25.10;53.80
19039;DHT22;9652;49.014;12.052;2022-08-06T10:42:19;25.20;53.60
19039;DHT22;9652;49.014;12.052;2022-08-06T10:44:48;25.20;53.90
19039;DHT22;9652;49.014;12.052;2022-08-06T10:47:16;25.30;54.00
19039;DHT22;9652;49.014;12.052;2022-08-06T10:49:45;25.40;53.20
19039;DHT22;9652;49.014;12.052;2022-08-06T10:52:13;25.50;52.70
19039;DHT22;9652;49.014;12.052;2022-08-06T10:54:40;25.60;53.40
19039;DHT22;9652;49.014;12.052;2022-08-06T10:57:08;25.70;53.50
19039;DHT22;9652;49.014;12.052;2022-08-06T10:59:38;25.90;53.10
19039;DHT22;9652;49.014;12.052;2022-08-06T11:02:25;26.00;52.80
19039;DHT22;9652;49.014;12.052;2022-08-06T11:05:02;26.00;51.30
19039;DHT22;9652;49.014;12.052;2022-08-06T11:07:45;26.10;51.00
19039;DHT22;9652;49.014;12.052;2022-08-06T11:13:35;26.10;50.50
19039;DHT22;9652;49.014;12.052;2022-08-06T11:16:22;26.20;50.40
19039;DHT22;9652;49.014;12.052;2022-08-06T11:19:00;26.10;50.00
19039;DHT22;9652;49.014;12.052;2022-08-06T11:21:40;26.10;50.00
19039;DHT22;9652;49.014;12.052;2022-08-06T11:24:09;26.10;49.60
19039;DHT22;9652;49.014;12.052;2022-08-06T11:26:38;26.10;50.50
19039;DHT22;9652;49.014;12.052;2022-08-06T11:29:07;26.10;50.50
19039;DHT22;9652;49.014;12.052;2022-08-06T11:31:37;26.20;50.50
19039;DHT22;9652;49.014;12.052;2022-08-06T11:34:08;26.40;50.10
19039;DHT22;9652;49.014;12.052;2022-08-06T11:36:46;26.30;49.70
19039;DHT22;9652;49.014;12.052;2022-08-06T11:39:15;26.50;49.40
19039;DHT22;9652;49.014;12.052;2022-08-06T11:41:53;26.60;49.40
19039;DHT22;9652;49.014;12.052;2022-08-06T11:44:23;26.60;49.10
19039;DHT22;9652;49.014;12.052;2022-08-06T11:47:13;26.70;49.10
19039;DHT22;9652;49.014;12.052;2022-08-06T11:49:43;26.70;48.50
19039;DHT22;9652;49.014;12.052;2022-08-06T11:52:41;26.80;48.40
19039;DHT22;9652;49.014;12.052;2022-08-06T11:55:10;26.70;47.00
19039;DHT22;9652;49.014;12.052;2022-08-06T11:57:39;26.80;48.20
19039;DHT22;9652;49.014;12.052;2022-08-06T12:00:16;26.70;48.00
19039;DHT22;9652;49.014;12.052;2022-08-06T12:02:56;26.80;47.70
19039;DHT22;9652;49.014;12.052;2022-08-06T12:05:34;26.80;47.40
19039;DHT22;9652;49.014;12.052;2022-08-06T12:08:22;26.80;47.00
19039;DHT22;9652;49.014;12.052;2022-08-06T12:11:22;26.80;46.40
19039;DHT22;9652;49.014;12.052;2022-08-06T12:13:57;26.80;46.30
19039;DHT22;9652;49.014;12.052;2022-08-06T12:16:32;26.80;46.20
19039;DHT22;9652;49.014;12.052;2022-08-06T12:19:02;26.80;46.50
19039;DHT22;9652;49.014;12.052;2022-08-06T12:21:31;26.80;46.70
19039;DHT22;9652;49.014;12.052;2022-08-06T12:24:01;26.80;46.50
19039;DHT22;9652;49.014;12.052;2022-08-06T12:26:31;26.80;46.50
19039;DHT22;9652;49.014;12.052;2022-08-06T12:29:06;26.80;46.60
19039;DHT22;9652;49.014;12.052;2022-08-06T12:31:37;26.90;46.00
19039;DHT22;9652;49.014;12.052;2022-08-06T12:34:06;26.90;46.00
19039;DHT22;9652;49.014;12.052;2022-08-06T12:36:34;26.90;46.20
19039;DHT22;9652;49.014;12.052;2022-08-06T12:39:07;26.90;46.10
19039;DHT22;9652;49.014;12.052;2022-08-06T12:41:38;26.80;45.10
19039;DHT22;9652;49.014;12.052;2022-08-06T12:44:10;27.00;45.30
19039;DHT22;9652;49.014;12.052;2022-08-06T12:46:39;27.00;45.10
19039;DHT22;9652;49.014;12.052;2022-08-06T12:49:06;27.10;45.50
19039;DHT22;9652;49.014;12.052;2022-08-06T12:51:34;27.20;45.20
19039;DHT22;9652;49.014;12.052;2022-08-06T12:54:04;27.20;44.70
19039;DHT22;9652;49.014;12.052;2022-08-06T12:56:38;27.30;44.50
19039;DHT22;9652;49.014;12.052;2022-08-06T12:59:09;27.30;44.20
19039;DHT22;9652;49.014;12.052;2022-08-06T13:01:38;27.40;44.50
19039;DHT22;9652;49.014;12.052;2022-08-06T13:04:07;27.50;45.20
19039;DHT22;9652;49.014;12.052;2022-08-06T13:06:37;27.50;44.40
19039;DHT22;9652;49.014;12.052;2022-08-06T13:09:06;27.80;44.20
19039;DHT22;9652;49.014;12.052;2022-08-06T13:11:35;27.90;43.00
19039;DHT22;9652;49.014;12.052;2022-08-06T13:14:11;28.10;43.40
19039;DHT22;9652;49.014;12.052;2022-08-06T13:16:41;28.10;42.70
19039;DHT22;9652;49.014;12.052;2022-08-06T13:19:11;28.20;41.30
19039;DHT22;9652;49.014;12.052;2022-08-06T13:21:39;28.20;42.00
19039;DHT22;9652;49.014;12.052;2022-08-06T13:24:10;28.20;41.80
19039;DHT22;9652;49.014;12.052;2022-08-06T13:26:49;28.20;41.90
19039;DHT22;9652;49.014;12.052;2022-08-06T13:29:20;28.30;41.60
19039;DHT22;9652;49.014;12.052;2022-08-06T13:31:59;28.50;43.00
19039;DHT22;9652;49.014;12.052;2022-08-06T13:34:28;28.80;43.00
19039;DHT22;9652;49.014;12.052;2022-08-06T13:36:57;29.40;44.60
19039;DHT22;9652;49.014;12.052;2022-08-06T13:39:27;29.80;43.00
19039;DHT22;9652;49.014;12.052;2022-08-06T13:42:04;30.30;42.50
19039;DHT22;9652;49.014;12.052;2022-08-06T13:44:35;30.80;41.40
19039;DHT22;9652;49.014;12.052;2022-08-06T13:47:04;31.20;42.40
19039;DHT22;9652;49.014;12.052;2022-08-06T13:49:33;31.70;41.90
19039;DHT22;9652;49.014;12.052;2022-08-06T13:52:01;32.20;41.10
19039;DHT22;9652;49.014;12.052;2022-08-06T13:54:30;32.70;40.60
19039;DHT22;9652;49.014;12.052;2022-08-06T13:56:58;33.10;39.60
19039;DHT22;9652;49.014;12.052;2022-08-06T13:59:28;33.50;39.10
19039;DHT22;9652;49.014;12.052;2022-08-06T14:01:57;33.70;37.60
19039;DHT22;9652;49.014;12.052;2022-08-06T14:04:25;33.90;36.70
19039;DHT22;9652;49.014;12.052;2022-08-06T14:06:54;34.00;36.30
19039;DHT22;9652;49.014;12.052;2022-08-06T14:09:24;34.00;35.80
19039;DHT22;9652;49.014;12.052;2022-08-06T14:11:55;34.10;35.70
19039;DHT22;9652;49.014;12.052;2022-08-06T14:14:24;34.10;35.00
19039;DHT22;9652;49.014;12.052;2022-08-06T14:16:54;34.20;35.00
19039;DHT22;9652;49.014;12.052;2022-08-06T14:19:22;34.20;34.90
19039;DHT22;9652;49.014;12.052;2022-08-06T14:21:50;34.20;34.90
19039;DHT22;9652;49.014;12.052;2022-08-06T14:24:18;34.30;34.50
19039;DHT22;9652;49.014;12.052;2022-08-06T14:26:45;34.40;34.30
19039;DHT22;9652;49.014;12.052;2022-08-06T14:29:13;34.60;33.90
19039;DHT22;9652;49.014;12.052;2022-08-06T14:31:41;34.70;33.40
19039;DHT22;9652;49.014;12.052;2022-08-06T14:34:08;34.80;33.30
19039;DHT22;9652;49.014;12.052;2022-08-06T14:36:35;34.80;32.30
19039;DHT22;9652;49.014;12.052;2022-08-06T14:39:03;34.80;32.10
19039;DHT22;9652;49.014;12.052;2022-08-06T14:41:30;34.60;31.60
19039;DHT22;9652;49.014;12.052;2022-08-06T14:44:16;34.50;31.70
19039;DHT22;9652;49.014;12.052;2022-08-06T14:47:01;34.40;31.60
19039;DHT22;9652;49.014;12.052;2022-08-06T14:49:28;34.30;31.70
19039;DHT22;9652;49.014;12.052;2022-08-06T14:51:55;34.30;31.80
19039;DHT22;9652;49.014;12.052;2022-08-06T14:54:22;34.30;31.20
19039;DHT22;9652;49.014;12.052;2022-08-06T14:56:49;34.30;30.90
19039;DHT22;9652;49.014;12.052;2022-08-06T14:59:17;34.30;30.90
19039;DHT22;9652;49.014;12.052;2022-08-06T15:01:45;34.40;30.60
19039;DHT22;9652;49.014;12.052;2022-08-06T15:04:12;34.40;30.60
19039;DHT22;9652;49.014;12.052;2022-08-06T15:06:39;34.50;30.60
19039;DHT22;9652;49.014;12.052;2022-08-06T15:09:07;34.70;30.60
19039;DHT22;9652;49.014;12.052;2022-08-06T15:11:34;34.80;30.10
19039;DHT22;9652;49.014;12.052;2022-08-06T15:14:01;35.00;30.00
19039;DHT22;9652;49.014;12.052;2022-08-06T15:16:29;35.10;29.90
19039;DHT22;9652;49.014;12.052;2022-08-06T15:18:57;35.20;29.90
19039;DHT22;9652;49.014;12.052;2022-08-06T15:21:25;35.30;29.80
19039;DHT22;9652;49.014;12.052;2022-08-06T15:23:52;35.50;29.60
19039;DHT22;9652;49.014;12.052;2022-08-06T15:26:21;35.60;29.40
19039;DHT22;9652;49.014;12.052;2022-08-06T15:28:49;35.70;29.10
19039;DHT22;9652;49.014;12.052;2022-08-06T15:31:16;35.70;28.90
19039;DHT22;9652;49.014;12.052;2022-08-06T15:33:46;35.70;29.00
19039;DHT22;9652;49.014;12.052;2022-08-06T15:36:13;35.70;28.90
19039;DHT22;9652;49.014;12.052;2022-08-06T15:38:40;35.90;28.80
19039;DHT22;9652;49.014;12.052;2022-08-06T15:41:08;36.00;28.70
19039;DHT22;9652;49.014;12.052;2022-08-06T15:43:35;36.20;28.60
19039;DHT22;9652;49.014;12.052;2022-08-06T15:46:02;36.20;28.40
19039;DHT22;9652;49.014;12.052;2022-08-06T15:48:30;36.30;28.20
19039;DHT22;9652;49.014;12.052;2022-08-06T15:50:59;36.40;28.30
19039;DHT22;9652;49.014;12.052;2022-08-06T15:53:26;36.50;28.20
19039;DHT22;9652;49.014;12.052;2022-08-06T15:55:53;36.60;28.30
19039;DHT22;9652;49.014;12.052;2022-08-06T15:58:20;36.70;27.80
19039;DHT22;9652;49.014;12.052;2022-08-06T16:00:47;36.70;27.10